sensor_id;sensor_type;location;lat;lon;timestamp;pressure;altitude;pressure_sealevel;temperature;humidity
44198;BME280;30157;55.512;37.764;2023-03-03T00:00:25;98677.88;;;-3.40;95.82
44198;BME280;30157;55.512;37.764;2023-03-03T00:02:51;98636.78;;;-3.57;95.71
44198;BME280;30157;55.512;37.764;2023-03-03T00:05:16;98645.56;;;-3.45;95.92
44198;BME280;30157;55.512;37.764;2023-03-03T00:07:43;98641.56;;;-3.39;95.39
44198;BME280;30157;55.512;37.764;2023-03-03T00:10:10;98549.91;;;-3.77;95.17
44198;BME280;30157;55.512;37.764;2023-03-03T00:12:47;98650.94;;;-3.09;94.95
44198;BME280;30157;55.512;37.764;2023-03-03T00:15:17;98613.19;;;-3.27;94.41
44198;BME280;30157;55.512;37.764;2023-03-03T00:17:43;98601.25;;;-3.29;94.09
44198;BME280;30157;55.512;37.764;2023-03-03T00:23:12;98625.53;;;-3.10;93.65
44198;BME280;30157;55.512;37.764;2023-03-03T00:25:42;98610.69;;;-3.25;94.38
44198;BME280;30157;55.512;37.764;2023-03-03T00:28:30;98627.25;;;-3.09;94.38
44198;BME280;30157;55.512;37.764;2023-03-03T00:30:59;98628.09;;;-3.09;95.91
44198;BME280;30157;55.512;37.764;2023-03-03T00:33:33;98624.94;;;-3.01;96.15
44198;BME280;30157;55.512;37.764;2023-03-03T00:36:37;98615.84;;;-2.95;96.57
44198;BME280;30157;55.512;37.764;2023-03-03T00:41:54;98608.59;;;-2.82;96.35
44198;BME280;30157;55.512;37.764;2023-03-03T00:44:39;98625.91;;;-2.69;95.69
44198;BME280;30157;55.512;37.764;2023-03-03T00:47:14;98620.81;;;-2.69;95.09
44198;BME280;30157;55.512;37.764;2023-03-03T00:49:43;98520.22;;;-3.23;95.83
44198;BME280;30157;55.512;37.764;2023-03-03T00:52:16;98506.50;;;-3.30;95.78
44198;BME280;30157;55.512;37.764;2023-03-03T00:54:43;98592.66;;;-2.77;96.09
44198;BME280;30157;55.512;37.764;2023-03-03T00:57:09;98570.53;;;-2.81;95.81
44198;BME280;30157;55.512;37.764;2023-03-03T00:59:38;98476.06;;;-3.30;96.20
44198;BME280;30157;55.512;37.764;2023-03-03T01:02:04;98461.69;;;-3.29;96.30
44198;BME280;30157;55.512;37.764;2023-03-03T01:04:30;98592.53;;;-2.51;96.59
44198;BME280;30157;55.512;37.764;2023-03-03T01:06:55;98480.91;;;-3.07;97.08
44198;BME280;30157;55.512;37.764;2023-03-03T01:09:22;98474.19;;;-3.05;97.23
44198;BME280;30157;55.512;37.764;2023-03-03T01:11:49;98576.00;;;-2.35;97.26
44198;BME280;30157;55.512;37.764;2023-03-03T01:14:15;98585.44;;;-2.31;97.52
44198;BME280;30157;55.512;37.764;2023-03-03T01:16:40;98479.84;;;-2.85;97.62
44198;BME280;30157;55.512;37.764;2023-03-03T01:19:06;98575.31;;;-2.29;98.93
44198;BME280;30157;55.512;37.764;2023-03-03T01:21:32;98565.81;;;-2.37;98.83
44198;BME280;30157;55.512;37.764;2023-03-03T01:23:58;98485.84;;;-2.81;99.01
44198;BME280;30157;55.512;37.764;2023-03-03T01:26:24;98466.16;;;-2.90;99.46
44198;BME280;30157;55.512;37.764;2023-03-03T01:28:50;98568.66;;;-2.24;99.50
44198;BME280;30157;55.512;37.764;2023-03-03T01:31:16;98573.78;;;-2.23;99.26
44198;BME280;30157;55.512;37.764;2023-03-03T01:33:42;98555.94;;;-2.26;99.68
44198;BME280;30157;55.512;37.764;2023-03-03T01:36:08;98429.50;;;-3.00;99.48
44198;BME280;30157;55.512;37.764;2023-03-03T01:38:37;98553.50;;;-2.21;100.00
44198;BME280;30157;55.512;37.764;2023-03-03T01:41:04;98560.31;;;-2.20;100.00
44198;BME280;30157;55.512;37.764;2023-03-03T01:43:31;98554.38;;;-2.21;100.00
44198;BME280;30157;55.512;37.764;2023-03-03T01:48:43;98437.56;;;-2.83;100.00
44198;BME280;30157;55.512;37.764;2023-03-03T01:51:22;98447.06;;;-2.76;100.00
44198;BME280;30157;55.512;37.764;2023-03-03T01:53:56;98465.72;;;-2.74;100.00
44198;BME280;30157;55.512;37.764;2023-03-03T01:56:23;98552.91;;;-2.11;100.00
44198;BME280;30157;55.512;37.764;2023-03-03T01:59:06;98544.53;;;-2.07;100.00
44198;BME280;30157;55.512;37.764;2023-03-03T02:01:34;98547.16;;;-2.04;99.85
44198;BME280;30157;55.512;37.764;2023-03-03T02:04:00;98542.09;;;-2.02;99.90
44198;BME280;30157;55.512;37.764;2023-03-03T02:06:30;98523.13;;;-2.16;99.99
44198;BME280;30157;55.512;37.764;2023-03-03T02:09:26;98519.66;;;-2.18;99.86
44198;BME280;30157;55.512;37.764;2023-03-03T02:11:58;98525.66;;;-2.16;99.78
44198;BME280;30157;55.512;37.764;2023-03-03T02:14:24;98542.19;;;-1.99;99.89
44198;BME280;30157;55.512;37.764;2023-03-03T02:16:51;98507.09;;;-2.14;99.31
44198;BME280;30157;55.512;37.764;2023-03-03T02:19:32;98527.91;;;-1.94;99.08
44198;BME280;30157;55.512;37.764;2023-03-03T02:22:00;98520.28;;;-1.94;98.71
44198;BME280;30157;55.512;37.764;2023-03-03T02:24:36;98456.63;;;-2.32;98.11
44198;BME280;30157;55.512;37.764;2023-03-03T02:27:04;98421.47;;;-2.50;97.40
44198;BME280;30157;55.512;37.764;2023-03-03T02:29:30;98505.03;;;-1.94;97.75
44198;BME280;30157;55.512;37.764;2023-03-03T02:31:56;98524.03;;;-1.78;97.71
44198;BME280;30157;55.512;37.764;2023-03-03T02:34:22;98512.16;;;-1.79;96.71
44198;BME280;30157;55.512;37.764;2023-03-03T02:36:47;98515.50;;;-1.81;96.63
44198;BME280;30157;55.512;37.764;2023-03-03T02:39:22;98512.13;;;-1.80;96.29
44198;BME280;30157;55.512;37.764;2023-03-03T02:44:25;98411.69;;;-2.33;96.26
44198;BME280;30157;55.512;37.764;2023-03-03T02:46:53;98404.97;;;-2.31;96.89
44198;BME280;30157;55.512;37.764;2023-03-03T02:49:22;98499.28;;;-1.85;97.40
44198;BME280;30157;55.512;37.764;2023-03-03T02:51:48;98408.31;;;-2.33;97.77
44198;BME280;30157;55.512;37.764;2023-03-03T02:54:16;98488.94;;;-1.93;98.84
44198;BME280;30157;55.512;37.764;2023-03-03T02:56:43;98493.16;;;-1.93;99.21
44198;BME280;30157;55.512;37.764;2023-03-03T02:59:10;98457.03;;;-2.16;98.86
44198;BME280;30157;55.512;37.764;2023-03-03T03:01:41;98433.94;;;-2.24;99.19
44198;BME280;30157;55.512;37.764;2023-03-03T03:04:16;98495.69;;;-1.95;99.55
44198;BME280;30157;55.512;37.764;2023-03-03T03:06:46;98457.16;;;-2.10;99.60
44198;BME280;30157;55.512;37.764;2023-03-03T03:09:14;98465.94;;;-1.97;99.73
44198;BME280;30157;55.512;37.764;2023-03-03T03:11:40;98474.50;;;-1.94;100.00
44198;BME280;30157;55.512;37.764;2023-03-03T03:14:09;98347.31;;;-2.70;99.77
44198;BME280;30157;55.512;37.764;2023-03-03T03:16:35;98475.38;;;-1.93;99.96
44198;BME280;30157;55.512;37.764;2023-03-03T03:19:03;98467.63;;;-1.98;99.80
44198;BME280;30157;55.512;37.764;2023-03-03T03:21:30;98463.19;;;-2.07;100.00
44198;BME280;30157;55.512;37.764;2023-03-03T03:23:57;98456.38;;;-2.08;99.96
44198;BME280;30157;55.512;37.764;2023-03-03T03:26:23;98475.34;;;-1.95;100.00
44198;BME280;30157;55.512;37.764;2023-03-03T03:28:50;98367.03;;;-2.60;100.00
44198;BME280;30157;55.512;37.764;2023-03-03T03:31:17;98434.94;;;-2.19;100.00
44198;BME280;30157;55.512;37.764;2023-03-03T03:33:43;98463.34;;;-2.00;100.00
44198;BME280;30157;55.512;37.764;2023-03-03T03:36:10;98454.59;;;-2.10;100.00
44198;BME280;30157;55.512;37.764;2023-03-03T03:38:36;98473.38;;;-2.05;100.00
44198;BME280;30157;55.512;37.764;2023-03-03T03:41:05;98467.53;;;-2.01;100.00
44198;BME280;30157;55.512;37.764;2023-03-03T03:43:31;98453.03;;;-2.05;100.00
44198;BME280;30157;55.512;37.764;2023-03-03T03:45:57;98465.88;;;-2.00;100.00
44198;BME280;30157;55.512;37.764;2023-03-03T03:48:33;98442.69;;;-2.13;100.00
44198;BME280;30157;55.512;37.764;2023-03-03T03:51:01;98447.09;;;-2.06;100.00
44198;BME280;30157;55.512;37.764;2023-03-03T03:53:29;98429.94;;;-2.14;100.00
44198;BME280;30157;55.512;37.764;2023-03-03T03:55:54;98457.53;;;-1.95;100.00
44198;BME280;30157;55.512;37.764;2023-03-03T03:58:20;98452.38;;;-1.98;100.00
44198;BME280;30157;55.512;37.764;2023-03-03T04:00:52;98414.69;;;-2.14;100.00
44198;BME280;30157;55.512;37.764;2023-03-03T04:03:17;98420.78;;;-2.08;100.00
44198;BME280;30157;55.512;37.764;2023-03-03T04:05:45;98398.34;;;-2.26;100.00
44198;BME280;30157;55.512;37.764;2023-03-03T04:08:12;98415.66;;;-2.09;100.00
44198;BME280;30157;55.512;37.764;2023-03-03T04:10:38;98450.91;;;-1.88;100.00
44198;BME280;30157;55.512;37.764;2023-03-03T04:13:05;98444.09;;;-1.89;100.00
44198;BME280;30157;55.512;37.764;2023-03-03T04:15:32;98442.50;;;-1.86;100.00
44198;BME280;30157;55.512;37.764;2023-03-03T04:17:59;98434.00;;;-1.84;100.00
44198;BME280;30157;55.512;37.764;2023-03-03T04:20:25;98305.97;;;-2.63;100.00
44198;BME280;30157;55.512;37.764;2023-03-03T04:22:53;98309.41;;;-2.62;100.00
44198;BME280;30157;55.512;37.764;2023-03-03T04:25:19;98433.22;;;-1.82;100.00
44198;BME280;30157;55.512;37.764;2023-03-03T04:27:46;98410.78;;;-2.00;99.72
44198;BME280;30157;55.512;37.764;2023-03-03T04:30:15;98396.31;;;-2.03;99.86
44198;BME280;30157;55.512;37.764;2023-03-03T04:32:46;98321.69;;;-2.43;99.64
44198;BME280;30157;55.512;37.764;2023-03-03T04:35:17;98443.53;;;-1.76;99.39
44198;BME280;30157;55.512;37.764;2023-03-03T04:37:43;98418.63;;;-1.91;99.49
44198;BME280;30157;55.512;37.764;2023-03-03T04:40:10;98422.03;;;-1.89;99.43
44198;BME280;30157;55.512;37.764;2023-03-03T04:42:38;98424.00;;;-1.77;98.90
44198;BME280;30157;55.512;37.764;2023-03-03T04:45:06;98430.00;;;-1.75;98.83
44198;BME280;30157;55.512;37.764;2023-03-03T04:47:33;98380.19;;;-2.05;99.06
44198;BME280;30157;55.512;37.764;2023-03-03T04:49:59;98398.25;;;-1.92;98.76
44198;BME280;30157;55.512;37.764;2023-03-03T04:52:26;98434.34;;;-1.71;98.91
44198;BME280;30157;55.512;37.764;2023-03-03T04:54:53;98325.97;;;-2.40;98.54
44198;BME280;30157;55.512;37.764;2023-03-03T04:57:18;98355.19;;;-2.23;99.10
44198;BME280;30157;55.512;37.764;2023-03-03T04:59:44;98340.59;;;-2.31;99.38
44198;BME280;30157;55.512;37.764;2023-03-03T05:02:10;98435.97;;;-1.73;99.11
44198;BME280;30157;55.512;37.764;2023-03-03T05:04:37;98326.94;;;-2.35;98.94
44198;BME280;30157;55.512;37.764;2023-03-03T05:07:03;98437.78;;;-1.67;98.97
44198;BME280;30157;55.512;37.764;2023-03-03T05:09:29;98438.72;;;-1.63;98.55
44198;BME280;30157;55.512;37.764;2023-03-03T05:11:55;98445.47;;;-1.65;98.68
44198;BME280;30157;55.512;37.764;2023-03-03T05:14:20;98373.28;;;-2.09;98.06
44198;BME280;30157;55.512;37.764;2023-03-03T05:16:46;98396.56;;;-1.92;98.47
44198;BME280;30157;55.512;37.764;2023-03-03T05:19:12;98435.25;;;-1.67;98.58
44198;BME280;30157;55.512;37.764;2023-03-03T05:21:37;98398.28;;;-1.91;98.63
44198;BME280;30157;55.512;37.764;2023-03-03T05:24:08;98445.53;;;-1.62;98.16
44198;BME280;30157;55.512;37.764;2023-03-03T05:26:34;98444.72;;;-1.61;98.35
44198;BME280;30157;55.512;37.764;2023-03-03T05:28:59;98442.28;;;-1.55;97.81
44198;BME280;30157;55.512;37.764;2023-03-03T05:31:25;98422.53;;;-1.67;97.71
44198;BME280;30157;55.512;37.764;2023-03-03T05:33:52;98449.16;;;-1.51;97.51
44198;BME280;30157;55.512;37.764;2023-03-03T05:36:18;98390.88;;;-1.80;97.47
44198;BME280;30157;55.512;37.764;2023-03-03T05:38:44;98386.59;;;-1.82;97.12
44198;BME280;30157;55.512;37.764;2023-03-03T05:41:09;98335.84;;;-2.16;97.07
44198;BME280;30157;55.512;37.764;2023-03-03T05:43:35;98412.31;;;-1.69;96.91
44198;BME280;30157;55.512;37.764;2023-03-03T05:46:02;98342.06;;;-2.03;96.49
44198;BME280;30157;55.512;37.764;2023-03-03T05:48:28;98351.72;;;-1.88;96.59
44198;BME280;30157;55.512;37.764;2023-03-03T05:50:57;98434.06;;;-1.43;95.84
44198;BME280;30157;55.512;37.764;2023-03-03T05:53:22;98434.91;;;-1.43;96.07
44198;BME280;30157;55.512;37.764;2023-03-03T05:55:48;98448.56;;;-1.39;95.39
44198;BME280;30157;55.512;37.764;2023-03-03T05:58:14;98257.84;;;-2.58;95.56
44198;BME280;30157;55.512;37.764;2023-03-03T06:00:39;98432.25;;;-1.49;95.89
44198;BME280;30157;55.512;37.764;2023-03-03T06:03:05;98343.72;;;-2.04;95.78
44198;BME280;30157;55.512;37.764;2023-03-03T06:05:31;98354.09;;;-1.96;95.63
44198;BME280;30157;55.512;37.764;2023-03-03T06:07:56;98418.41;;;-1.62;95.15
44198;BME280;30157;55.512;37.764;2023-03-03T06:10:22;98457.88;;;-1.41;94.87
44198;BME280;30157;55.512;37.764;2023-03-03T06:12:51;98455.34;;;-1.40;95.08
44198;BME280;30157;55.512;37.764;2023-03-03T06:15:17;98445.22;;;-1.37;94.67
44198;BME280;30157;55.512;37.764;2023-03-03T06:17:43;98460.66;;;-1.30;94.01
44198;BME280;30157;55.512;37.764;2023-03-03T06:20:10;98451.31;;;-1.30;93.07
44198;BME280;30157;55.512;37.764;2023-03-03T06:22:35;98369.94;;;-1.68;93.26
44198;BME280;30157;55.512;37.764;2023-03-03T06:25:01;98451.56;;;-1.16;91.81
44198;BME280;30157;55.512;37.764;2023-03-03T06:27:29;98456.75;;;-1.13;91.96
44198;BME280;30157;55.512;37.764;2023-03-03T06:29:54;98446.41;;;-1.21;91.26
44198;BME280;30157;55.512;37.764;2023-03-03T06:32:22;98373.56;;;-1.55;91.31
44198;BME280;30157;55.512;37.764;2023-03-03T06:34:48;98437.47;;;-1.00;91.05
44198;BME280;30157;55.512;37.764;2023-03-03T06:37:14;98453.91;;;-0.84;90.08
44198;BME280;30157;55.512;37.764;2023-03-03T06:39:40;98450.69;;;-0.75;89.96
44198;BME280;30157;55.512;37.764;2023-03-03T06:42:06;98376.16;;;-1.09;89.60
44198;BME280;30157;55.512;37.764;2023-03-03T06:44:34;98427.66;;;-0.80;89.55
44198;BME280;30157;55.512;37.764;2023-03-03T06:47:00;98448.00;;;-0.83;89.05
44198;BME280;30157;55.512;37.764;2023-03-03T06:49:26;98464.28;;;-0.75;89.07
44198;BME280;30157;55.512;37.764;2023-03-03T06:51:51;98404.13;;;-1.12;89.32
44198;BME280;30157;55.512;37.764;2023-03-03T06:54:19;98425.66;;;-0.96;88.63
44198;BME280;30157;55.512;37.764;2023-03-03T06:56:46;98447.09;;;-0.83;88.29
44198;BME280;30157;55.512;37.764;2023-03-03T06:59:19;98381.03;;;-1.22;88.45
44198;BME280;30157;55.512;37.764;2023-03-03T07:01:47;98471.16;;;-0.71;88.30
44198;BME280;30157;55.512;37.764;2023-03-03T07:06:50;98456.44;;;-0.86;87.17
44198;BME280;30157;55.512;37.764;2023-03-03T07:09:24;98433.44;;;-0.90;87.13
44198;BME280;30157;55.512;37.764;2023-03-03T07:12:01;98457.56;;;-0.70;87.18
44198;BME280;30157;55.512;37.764;2023-03-03T07:14:31;98445.44;;;-0.83;87.14
44198;BME280;30157;55.512;37.764;2023-03-03T07:17:03;98369.06;;;-1.26;86.40
44198;BME280;30157;55.512;37.764;2023-03-03T07:19:32;98462.69;;;-0.68;86.38
44198;BME280;30157;55.512;37.764;2023-03-03T07:22:22;98435.28;;;-0.80;85.91
44198;BME280;30157;55.512;37.764;2023-03-03T07:24:51;98362.13;;;-1.34;85.06
44198;BME280;30157;55.512;37.764;2023-03-03T07:29:46;98445.72;;;-0.68;85.26
44198;BME280;30157;55.512;37.764;2023-03-03T07:32:40;98455.09;;;-0.65;83.86
44198;BME280;30157;55.512;37.764;2023-03-03T07:35:28;98400.19;;;-0.96;84.27
44198;BME280;30157;55.512;37.764;2023-03-03T07:37:58;98207.19;;;-2.08;84.29
44198;BME280;30157;55.512;37.764;2023-03-03T07:40:38;98451.78;;;-0.61;83.64
44198;BME280;30157;55.512;37.764;2023-03-03T07:43:36;98453.69;;;-0.49;83.43
44198;BME280;30157;55.512;37.764;2023-03-03T07:48:37;98459.75;;;-0.42;82.41
44198;BME280;30157;55.512;37.764;2023-03-03T07:51:35;98467.53;;;-0.36;82.47
44198;BME280;30157;55.512;37.764;2023-03-03T07:56:57;98456.25;;;-0.49;82.09
44198;BME280;30157;55.512;37.764;2023-03-03T07:59:27;98378.97;;;-0.95;82.16
44198;BME280;30157;55.512;37.764;2023-03-03T08:01:56;98466.47;;;-0.46;82.22
44198;BME280;30157;55.512;37.764;2023-03-03T08:04:40;98461.53;;;-0.37;82.45
44198;BME280;30157;55.512;37.764;2023-03-03T08:07:15;98468.31;;;-0.39;81.92
44198;BME280;30157;55.512;37.764;2023-03-03T08:10:00;98475.91;;;-0.42;81.79
44198;BME280;30157;55.512;37.764;2023-03-03T08:12:40;98470.69;;;-0.49;82.16
44198;BME280;30157;55.512;37.764;2023-03-03T08:15:22;98447.56;;;-0.60;82.65
44198;BME280;30157;55.512;37.764;2023-03-03T08:17:49;98472.47;;;-0.45;81.91
44198;BME280;30157;55.512;37.764;2023-03-03T08:22:49;98477.63;;;-0.41;81.89
44198;BME280;30157;55.512;37.764;2023-03-03T08:25:15;98464.91;;;-0.39;81.65
44198;BME280;30157;55.512;37.764;2023-03-03T08:27:40;98370.53;;;-0.93;81.64
44198;BME280;30157;55.512;37.764;2023-03-03T08:30:06;98410.19;;;-0.60;81.40
44198;BME280;30157;55.512;37.764;2023-03-03T08:32:32;98480.63;;;-0.16;81.67
44198;BME280;30157;55.512;37.764;2023-03-03T08:34:58;98473.84;;;-0.12;81.44
44198;BME280;30157;55.512;37.764;2023-03-03T08:37:23;98479.81;;;-0.13;81.38
44198;BME280;30157;55.512;37.764;2023-03-03T08:39:49;98482.47;;;-0.04;81.08
44198;BME280;30157;55.512;37.764;2023-03-03T08:42:15;98444.34;;;0.04;80.92
44198;BME280;30157;55.512;37.764;2023-03-03T08:44:40;98478.03;;;0.38;79.31
44198;BME280;30157;55.512;37.764;2023-03-03T08:47:06;98462.91;;;0.52;78.52
44198;BME280;30157;55.512;37.764;2023-03-03T08:49:31;98483.53;;;0.67;77.76
44198;BME280;30157;55.512;37.764;2023-03-03T08:51:57;98473.38;;;0.70;77.43
44198;BME280;30157;55.512;37.764;2023-03-03T08:54:25;98479.44;;;0.78;76.74
44198;BME280;30157;55.512;37.764;2023-03-03T08:56:51;98479.28;;;0.66;76.31
44198;BME280;30157;55.512;37.764;2023-03-03T08:59:16;98483.66;;;0.75;76.68
44198;BME280;30157;55.512;37.764;2023-03-03T09:01:47;98479.50;;;0.83;76.36
44198;BME280;30157;55.512;37.764;2023-03-03T09:04:20;98482.97;;;0.90;76.15
44198;BME280;30157;55.512;37.764;2023-03-03T09:06:45;98495.63;;;0.79;76.07
44198;BME280;30157;55.512;37.764;2023-03-03T09:09:11;98318.13;;;-0.23;76.23
44198;BME280;30157;55.512;37.764;2023-03-03T09:11:36;98409.09;;;0.36;76.45
44198;BME280;30157;55.512;37.764;2023-03-03T09:14:10;98488.16;;;0.94;75.71
44198;BME280;30157;55.512;37.764;2023-03-03T09:16:52;98488.16;;;0.94;75.40
44198;BME280;30157;55.512;37.764;2023-03-03T09:19:31;98422.19;;;0.59;74.96
44198;BME280;30157;55.512;37.764;2023-03-03T09:22:32;98484.94;;;1.09;75.34
44198;BME280;30157;55.512;37.764;2023-03-03T09:25:00;98484.84;;;1.03;74.61
44198;BME280;30157;55.512;37.764;2023-03-03T09:27:28;98408.47;;;0.54;74.36
44198;BME280;30157;55.512;37.764;2023-03-03T09:29:56;98411.84;;;0.52;73.88
44198;BME280;30157;55.512;37.764;2023-03-03T09:32:32;98449.75;;;0.88;73.98
44198;BME280;30157;55.512;37.764;2023-03-03T09:35:00;98481.72;;;1.26;73.94
44198;BME280;30157;55.512;37.764;2023-03-03T09:37:35;98476.13;;;1.62;71.93
44198;BME280;30157;55.512;37.764;2023-03-03T09:51:26;98469.84;;;2.26;69.48
44198;BME280;30157;55.512;37.764;2023-03-03T10:02:34;98443.31;;;1.21;71.37
44198;BME280;30157;55.512;37.764;2023-03-03T10:18:28;98471.97;;;1.74;71.36
44198;BME280;30157;55.512;37.764;2023-03-03T10:21:01;98472.38;;;2.25;70.09
44198;BME280;30157;55.512;37.764;2023-03-03T10:23:49;98350.94;;;1.82;69.05
44198;BME280;30157;55.512;37.764;2023-03-03T10:40:12;98478.31;;;2.21;68.62
44198;BME280;30157;55.512;37.764;2023-03-03T11:02:37;98474.59;;;1.83;70.12
44198;BME280;30157;55.512;37.764;2023-03-03T11:08:00;98488.09;;;1.66;70.07
44198;BME280;30157;55.512;37.764;2023-03-03T11:13:32;98474.25;;;1.43;69.67
44198;BME280;30157;55.512;37.764;2023-03-03T11:21:47;98484.47;;;1.44;70.65
44198;BME280;30157;55.512;37.764;2023-03-03T11:25:22;98477.72;;;1.49;70.06
44198;BME280;30157;55.512;37.764;2023-03-03T11:32:50;98474.63;;;1.84;69.11
44198;BME280;30157;55.512;37.764;2023-03-03T11:35:22;98472.91;;;1.85;68.88
44198;BME280;30157;55.512;37.764;2023-03-03T11:38:03;98468.72;;;1.95;68.92
44198;BME280;30157;55.512;37.764;2023-03-03T11:40:46;98462.75;;;1.91;68.23
44198;BME280;30157;55.512;37.764;2023-03-03T11:43:37;98483.16;;;1.87;68.27
44198;BME280;30157;55.512;37.764;2023-03-03T11:46:21;98479.63;;;1.72;68.36
44198;BME280;30157;55.512;37.764;2023-03-03T11:54:31;98470.81;;;1.42;68.91
44198;BME280;30157;55.512;37.764;2023-03-03T12:00:03;98469.94;;;1.40;68.97
44198;BME280;30157;55.512;37.764;2023-03-03T12:02:50;98448.41;;;1.21;69.28
44198;BME280;30157;55.512;37.764;2023-03-03T12:05:54;98476.72;;;1.37;69.56
44198;BME280;30157;55.512;37.764;2023-03-03T12:11:20;98475.78;;;1.28;69.98
44198;BME280;30157;55.512;37.764;2023-03-03T12:27:48;98459.44;;;1.15;70.84
44198;BME280;30157;55.512;37.764;2023-03-03T12:33:22;98490.19;;;1.23;70.57
44198;BME280;30157;55.512;37.764;2023-03-03T12:36:01;98378.81;;;0.65;70.61
44198;BME280;30157;55.512;37.764;2023-03-03T12:41:31;98384.88;;;0.74;71.00
44198;BME280;30157;55.512;37.764;2023-03-03T12:44:17;98492.03;;;1.33;71.11
44198;BME280;30157;55.512;37.764;2023-03-03T12:46:55;98479.97;;;1.23;70.08
44198;BME280;30157;55.512;37.764;2023-03-03T13:05:28;98489.25;;;1.15;65.87
44198;BME280;30157;55.512;37.764;2023-03-03T13:13:50;98493.38;;;1.04;65.05
44198;BME280;30157;55.512;37.764;2023-03-03T13:16:28;98435.91;;;0.68;65.22
44198;BME280;30157;55.512;37.764;2023-03-03T13:18:59;98499.28;;;0.99;66.07
44198;BME280;30157;55.512;37.764;2023-03-03T13:27:16;98442.66;;;0.65;66.05
44198;BME280;30157;55.512;37.764;2023-03-03T13:30:03;98504.28;;;0.90;65.96
44198;BME280;30157;55.512;37.764;2023-03-03T13:32:58;98408.28;;;0.40;66.29
44198;BME280;30157;55.512;37.764;2023-03-03T13:35:45;98493.16;;;0.85;65.84
44198;BME280;30157;55.512;37.764;2023-03-03T13:38:21;98499.22;;;0.92;66.00
44198;BME280;30157;55.512;37.764;2023-03-03T13:52:21;98451.00;;;0.54;65.79
44198;BME280;30157;55.512;37.764;2023-03-03T13:55:20;98494.78;;;0.78;65.98
44198;BME280;30157;55.512;37.764;2023-03-03T14:00:48;98387.44;;;0.09;65.43
44198;BME280;30157;55.512;37.764;2023-03-03T14:06:04;98491.19;;;0.65;65.89
44198;BME280;30157;55.512;37.764;2023-03-03T14:16:39;98496.97;;;0.54;65.64
44198;BME280;30157;55.512;37.764;2023-03-03T14:19:34;98478.09;;;0.41;65.97
44198;BME280;30157;55.512;37.764;2023-03-03T14:22:15;98493.53;;;0.50;66.32
44198;BME280;30157;55.512;37.764;2023-03-03T14:25:01;98498.56;;;0.47;66.55
44198;BME280;30157;55.512;37.764;2023-03-03T14:35:39;98466.66;;;0.17;66.92
44198;BME280;30157;55.512;37.764;2023-03-03T14:38:12;98490.72;;;0.31;67.07
44198;BME280;30157;55.512;37.764;2023-03-03T14:40:40;98353.31;;;-0.56;66.99
44198;BME280;30157;55.512;37.764;2023-03-03T14:45:45;98475.94;;;0.12;67.34
44198;BME280;30157;55.512;37.764;2023-03-03T14:50:59;98479.22;;;0.05;67.54
44198;BME280;30157;55.512;37.764;2023-03-03T14:53:44;98505.75;;;0.14;67.68
44198;BME280;30157;55.512;37.764;2023-03-03T14:58:54;98495.53;;;0.13;67.72
44198;BME280;30157;55.512;37.764;2023-03-03T15:01:35;98504.88;;;0.12;67.81
44198;BME280;30157;55.512;37.764;2023-03-03T15:04:01;98496.38;;;0.13;67.87
44198;BME280;30157;55.512;37.764;2023-03-03T15:06:34;98513.38;;;0.13;67.61
44198;BME280;30157;55.512;37.764;2023-03-03T15:09:39;98511.69;;;0.13;67.77
44198;BME280;30157;55.512;37.764;2023-03-03T15:12:22;98512.53;;;0.12;68.04
44198;BME280;30157;55.512;37.764;2023-03-03T15:14:51;98511.63;;;0.10;67.86
44198;BME280;30157;55.512;37.764;2023-03-03T15:26:34;98512.41;;;0.05;67.65
44198;BME280;30157;55.512;37.764;2023-03-03T15:29:34;98510.69;;;0.04;67.46
44198;BME280;30157;55.512;37.764;2023-03-03T15:32:07;98519.16;;;0.03;67.63
44198;BME280;30157;55.512;37.764;2023-03-03T15:34:39;98528.50;;;0.02;67.89
44198;BME280;30157;55.512;37.764;2023-03-03T15:42:32;98526.88;;;0.04;68.27
44198;BME280;30157;55.512;37.764;2023-03-03T15:53:07;98528.44;;;-0.03;69.10
44198;BME280;30157;55.512;37.764;2023-03-03T15:55:50;98524.19;;;-0.04;68.96
44198;BME280;30157;55.512;37.764;2023-03-03T16:01:19;98460.56;;;-0.43;69.07
44198;BME280;30157;55.512;37.764;2023-03-03T16:03:59;98502.53;;;-0.26;69.49
44198;BME280;30157;55.512;37.764;2023-03-03T16:09:08;98525.75;;;-0.12;69.45
44198;BME280;30157;55.512;37.764;2023-03-03T16:11:45;98432.06;;;-0.71;69.27
44198;BME280;30157;55.512;37.764;2023-03-03T16:17:19;98518.16;;;-0.06;69.93
44198;BME280;30157;55.512;37.764;2023-03-03T16:20:15;98429.03;;;-0.50;69.60
44198;BME280;30157;55.512;37.764;2023-03-03T16:25:46;98351.16;;;-0.85;69.40
44198;BME280;30157;55.512;37.764;2023-03-03T16:30:49;98487.69;;;0.01;69.36
44198;BME280;30157;55.512;37.764;2023-03-03T16:33:35;98418.91;;;-0.47;69.50
44198;BME280;30157;55.512;37.764;2023-03-03T16:38:52;98430.53;;;-0.61;70.13
44198;BME280;30157;55.512;37.764;2023-03-03T16:41:24;98501.81;;;-0.19;70.47
44198;BME280;30157;55.512;37.764;2023-03-03T16:52:18;98517.03;;;-0.69;70.84
44198;BME280;30157;55.512;37.764;2023-03-03T16:57:38;98519.19;;;-0.89;71.28
44198;BME280;30157;55.512;37.764;2023-03-03T17:00:28;98519.84;;;-0.99;71.68
44198;BME280;30157;55.512;37.764;2023-03-03T17:06:04;98520.56;;;-1.05;71.73
44198;BME280;30157;55.512;37.764;2023-03-03T17:41:41;98503.69;;;-1.00;71.48
44198;BME280;30157;55.512;37.764;2023-03-03T17:44:54;98515.63;;;-0.97;71.50
44198;BME280;30157;55.512;37.764;2023-03-03T17:51:23;98513.84;;;-1.02;71.69
44198;BME280;30157;55.512;37.764;2023-03-03T17:53:58;98512.88;;;-1.07;71.20
44198;BME280;30157;55.512;37.764;2023-03-03T18:01:29;98477.84;;;-1.58;71.47
44198;BME280;30157;55.512;37.764;2023-03-03T18:22:48;98522.31;;;-1.80;72.55
44198;BME280;30157;55.512;37.764;2023-03-03T18:25:28;98524.72;;;-1.85;72.11
44198;BME280;30157;55.512;37.764;2023-03-03T18:30:52;98427.28;;;-2.54;72.46
44198;BME280;30157;55.512;37.764;2023-03-03T18:38:57;98531.66;;;-2.13;72.91
44198;BME280;30157;55.512;37.764;2023-03-03T18:41:27;98517.75;;;-2.27;72.93
44198;BME280;30157;55.512;37.764;2023-03-03T18:44:39;98528.91;;;-2.22;73.37
44198;BME280;30157;55.512;37.764;2023-03-03T18:46:48;98540.88;;;-2.18;72.85